N711RX KHPN-K7B2
Flight info
| Callsign | N711RX |
|---|---|
| Flight time | N/A |
| Altitude | 17000 |
| Route | CMK V419 JUDDS |
| Aircraft | SF50/L-BDGRSWY/LB2U2 |
Departure
| Time | 2026-04-28 13:04 |
|---|---|
| Airport | Westchester County Airport (KHPN) |
Arrival
| Time | N/A |
|---|---|
| Airport | K7B2 |
| Time | Latitude | Longitude | Altitude | Speed | Heading |
|---|---|---|---|---|---|
| 2026-04-28 12:49 | 41.06391 | -73.70946 | 414 ft | 0 kts | 192° |
| 2026-04-28 12:58 | 41.06388 | -73.70948 | 414 ft | 0 kts | 218° |
| 2026-04-28 12:58 | 41.06383 | -73.70960 | 411 ft | 7 kts | 263° |
| 2026-04-28 12:58 | 41.06407 | -73.71026 | 411 ft | 7 kts | 333° |
| 2026-04-28 12:58 | 41.06443 | -73.71032 | 414 ft | 4 kts | 8° |
| 2026-04-28 12:59 | 41.06469 | -73.70970 | 414 ft | 15 kts | 103° |
| 2026-04-28 12:59 | 41.06447 | -73.70847 | 414 ft | 8 kts | 103° |
| 2026-04-28 12:59 | 41.06437 | -73.70790 | 411 ft | 4 kts | 103° |
| 2026-04-28 12:59 | 41.06433 | -73.70764 | 414 ft | 5 kts | 103° |
| 2026-04-28 13:00 | 41.06430 | -73.70727 | 414 ft | 4 kts | 29° |
| 2026-04-28 13:00 | 41.06507 | -73.70724 | 414 ft | 19 kts | 358° |
| 2026-04-28 13:00 | 41.06641 | -73.70799 | 414 ft | 23 kts | 331° |
| 2026-04-28 13:00 | 41.06783 | -73.70912 | 414 ft | 24 kts | 328° |
| 2026-04-28 13:01 | 41.06928 | -73.71025 | 413 ft | 23 kts | 333° |
| 2026-04-28 13:01 | 41.07056 | -73.71114 | 414 ft | 23 kts | 330° |
| 2026-04-28 13:01 | 41.07202 | -73.71227 | 414 ft | 27 kts | 329° |
| 2026-04-28 13:01 | 41.07350 | -73.71342 | 409 ft | 22 kts | 330° |
| 2026-04-28 13:02 | 41.07460 | -73.71425 | 412 ft | 13 kts | 330° |
| 2026-04-28 13:02 | 41.07506 | -73.71424 | 414 ft | 0 kts | 50° |
| 2026-04-28 13:03 | 41.07533 | -73.71371 | 415 ft | 16 kts | 57° |
| 2026-04-28 13:03 | 41.07539 | -73.71317 | 415 ft | 6 kts | 144° |
| 2026-04-28 13:04 | 41.07337 | -73.71163 | 412 ft | 62 kts | 150° |
| 2026-04-28 13:04 | 41.06822 | -73.70767 | 513 ft | 97 kts | 151° |
| 2026-04-28 13:04 | 41.06194 | -73.70368 | 864 ft | 106 kts | 155° |
| 2026-04-28 13:04 | 41.05454 | -73.70455 | 1293 ft | 119 kts | 214° |
| 2026-04-28 13:05 | 41.05152 | -73.71467 | 1915 ft | 124 kts | 280° |
| 2026-04-28 13:05 | 41.05584 | -73.72466 | 2390 ft | 136 kts | 305° |
| 2026-04-28 13:05 | 41.06190 | -73.73507 | 2865 ft | 145 kts | 313° |
| 2026-04-28 13:05 | 41.06908 | -73.74594 | 3077 ft | 179 kts | 304° |
| 2026-04-28 13:06 | 41.07702 | -73.76085 | 3018 ft | 215 kts | 304° |
| 2026-04-28 13:06 | 41.08620 | -73.77801 | 3027 ft | 243 kts | 304° |
| 2026-04-28 13:06 | 41.09608 | -73.79633 | 3747 ft | 232 kts | 304° |
| 2026-04-28 13:06 | 41.10485 | -73.81290 | 4885 ft | 207 kts | 304° |
| 2026-04-28 13:07 | 41.11435 | -73.82571 | 5703 ft | 191 kts | 334° |
| 2026-04-28 13:07 | 41.12702 | -73.82801 | 6212 ft | 184 kts | 19° |
| 2026-04-28 13:07 | 41.13792 | -73.82001 | 6733 ft | 179 kts | 43° |
| 2026-04-28 13:07 | 41.14361 | -73.81194 | 7064 ft | 177 kts | 57° |
| 2026-04-28 13:08 | 41.15266 | -73.79389 | 7672 ft | 179 kts | 58° |
| 2026-04-28 13:08 | 41.15752 | -73.78492 | 7966 ft | 182 kts | 55° |
| 2026-04-28 13:08 | 41.16542 | -73.77168 | 8419 ft | 184 kts | 53° |
| 2026-04-28 13:08 | 41.17352 | -73.75838 | 8865 ft | 186 kts | 52° |
| 2026-04-28 13:09 | 41.18163 | -73.74490 | 9302 ft | 188 kts | 52° |
| 2026-04-28 13:09 | 41.18988 | -73.73125 | 9704 ft | 190 kts | 51° |
| 2026-04-28 13:09 | 41.19822 | -73.71745 | 10094 ft | 193 kts | 50° |
| 2026-04-28 13:09 | 41.20661 | -73.70346 | 10428 ft | 195 kts | 50° |
| 2026-04-28 13:10 | 41.21510 | -73.68941 | 10775 ft | 196 kts | 49° |
| 2026-04-28 13:10 | 41.22371 | -73.67524 | 11122 ft | 198 kts | 50° |
| 2026-04-28 13:10 | 41.23231 | -73.66088 | 11456 ft | 199 kts | 50° |
| 2026-04-28 13:10 | 41.24100 | -73.64645 | 11791 ft | 201 kts | 49° |
| 2026-04-28 13:11 | 41.24976 | -73.63191 | 12132 ft | 202 kts | 49° |
| 2026-04-28 13:11 | 41.25857 | -73.61723 | 12468 ft | 204 kts | 49° |
| 2026-04-28 13:11 | 41.26743 | -73.60249 | 12809 ft | 205 kts | 49° |
| 2026-04-28 13:11 | 41.27637 | -73.58755 | 13147 ft | 207 kts | 48° |
| 2026-04-28 13:12 | 41.28592 | -73.57332 | 13471 ft | 207 kts | 41° |
| 2026-04-28 13:12 | 41.29627 | -73.55982 | 13814 ft | 208 kts | 41° |
| 2026-04-28 13:12 | 41.30655 | -73.54619 | 14153 ft | 210 kts | 41° |
| 2026-04-28 13:12 | 41.31685 | -73.53241 | 14471 ft | 210 kts | 41° |
| 2026-04-28 13:13 | 41.31891 | -73.52966 | 14536 ft | 210 kts | 41° |
| 2026-04-28 13:14 | 41.32614 | -73.52001 | 14766 ft | 210 kts | 41° |
| 2026-04-28 13:14 | 41.33655 | -73.50617 | 14988 ft | 217 kts | 41° |
| 2026-04-28 13:15 | 41.34763 | -73.49143 | 15001 ft | 234 kts | 42° |
| 2026-04-28 13:15 | 41.35959 | -73.47548 | 15004 ft | 253 kts | 42° |
| 2026-04-28 13:15 | 41.37242 | -73.45834 | 14998 ft | 270 kts | 43° |
| 2026-04-28 13:15 | 41.38596 | -73.44023 | 15003 ft | 282 kts | 43° |
| 2026-04-28 13:16 | 41.40009 | -73.42129 | 15000 ft | 293 kts | 43° |
| 2026-04-28 13:16 | 41.41465 | -73.40181 | 14998 ft | 301 kts | 43° |
| 2026-04-28 13:16 | 41.42956 | -73.38188 | 15001 ft | 306 kts | 43° |
| 2026-04-28 13:16 | 41.44470 | -73.36166 | 14999 ft | 311 kts | 43° |
| 2026-04-28 13:17 | 41.46002 | -73.34111 | 15005 ft | 313 kts | 43° |
| 2026-04-28 13:17 | 41.47535 | -73.32048 | 15012 ft | 313 kts | 43° |
| 2026-04-28 13:17 | 41.49068 | -73.29990 | 15010 ft | 312 kts | 43° |
| 2026-04-28 13:17 | 41.50595 | -73.27939 | 15008 ft | 311 kts | 43° |
| 2026-04-28 13:18 | 41.52112 | -73.25900 | 15009 ft | 309 kts | 43° |
| 2026-04-28 13:18 | 41.53631 | -73.23886 | 15007 ft | 307 kts | 42° |
| 2026-04-28 13:18 | 41.55129 | -73.21921 | 15008 ft | 305 kts | 42° |
| 2026-04-28 13:18 | 41.56632 | -73.19930 | 15006 ft | 304 kts | 42° |
| 2026-04-28 13:19 | 41.58124 | -73.17937 | 15006 ft | 302 kts | 43° |
| 2026-04-28 13:19 | 41.59607 | -73.15964 | 15007 ft | 301 kts | 42° |
| 2026-04-28 13:19 | 41.61087 | -73.14002 | 15006 ft | 300 kts | 42° |
| 2026-04-28 13:19 | 41.62565 | -73.12040 | 15007 ft | 298 kts | 42° |
| 2026-04-28 13:20 | 41.64178 | -73.10336 | 14998 ft | 294 kts | 29° |
| 2026-04-28 13:20 | 41.65979 | -73.09061 | 15002 ft | 292 kts | 25° |
| 2026-04-28 13:20 | 41.67776 | -73.07789 | 15005 ft | 292 kts | 26° |
| 2026-04-28 13:20 | 41.69566 | -73.06499 | 15003 ft | 292 kts | 26° |
| 2026-04-28 13:21 | 41.71366 | -73.05260 | 14996 ft | 289 kts | 21° |
| 2026-04-28 13:21 | 41.73316 | -73.04688 | 14995 ft | 286 kts | 4° |
| 2026-04-28 13:21 | 41.75302 | -73.04550 | 14995 ft | 286 kts | 1° |
| 2026-04-28 13:21 | 41.77288 | -73.04354 | 14996 ft | 287 kts | 5° |
| 2026-04-28 13:22 | 41.79239 | -73.03976 | 14991 ft | 287 kts | 7° |
| 2026-04-28 13:22 | 41.81237 | -73.03557 | 14995 ft | 287 kts | 7° |
| 2026-04-28 13:22 | 41.83219 | -73.03208 | 14992 ft | 287 kts | 5° |
| 2026-04-28 13:22 | 41.85182 | -73.02881 | 14992 ft | 287 kts | 6° |
| 2026-04-28 13:23 | 41.87165 | -73.02523 | 14993 ft | 288 kts | 6° |
| 2026-04-28 13:23 | 41.89182 | -73.02150 | 14969 ft | 289 kts | 6° |
| 2026-04-28 13:23 | 41.91175 | -73.01797 | 14686 ft | 297 kts | 6° |
| 2026-04-28 13:23 | 41.93238 | -73.01431 | 14304 ft | 300 kts | 6° |
| 2026-04-28 13:24 | 41.95313 | -73.01056 | 13892 ft | 301 kts | 6° |
| 2026-04-28 13:24 | 41.97382 | -73.00681 | 13476 ft | 299 kts | 6° |
| 2026-04-28 13:24 | 41.99444 | -73.00310 | 13078 ft | 298 kts | 6° |
| 2026-04-28 13:24 | 42.01497 | -72.99943 | 12683 ft | 297 kts | 6° |
| 2026-04-28 13:25 | 42.03535 | -72.99576 | 12294 ft | 295 kts | 6° |
| 2026-04-28 13:25 | 42.05569 | -72.99207 | 11903 ft | 294 kts | 6° |
| 2026-04-28 13:25 | 42.07589 | -72.98844 | 11522 ft | 292 kts | 6° |
| 2026-04-28 13:25 | 42.09602 | -72.98481 | 11132 ft | 292 kts | 7° |
| 2026-04-28 13:26 | 42.11613 | -72.98117 | 10751 ft | 291 kts | 7° |
| 2026-04-28 13:26 | 42.13620 | -72.97751 | 10366 ft | 291 kts | 7° |
| 2026-04-28 13:26 | 42.15619 | -72.97390 | 9968 ft | 290 kts | 8° |
| 2026-04-28 13:26 | 42.17616 | -72.97031 | 9571 ft | 289 kts | 8° |
| 2026-04-28 13:27 | 42.19606 | -72.96672 | 9192 ft | 288 kts | 8° |
| 2026-04-28 13:27 | 42.21588 | -72.96319 | 8811 ft | 287 kts | 9° |
| 2026-04-28 13:27 | 42.23563 | -72.95959 | 8432 ft | 286 kts | 9° |
| 2026-04-28 13:27 | 42.25525 | -72.95597 | 8057 ft | 285 kts | 9° |
| 2026-04-28 13:28 | 42.27486 | -72.95238 | 7684 ft | 283 kts | 9° |
| 2026-04-28 13:28 | 42.29429 | -72.94856 | 7304 ft | 281 kts | 14° |
| 2026-04-28 13:28 | 42.31322 | -72.94219 | 6939 ft | 280 kts | 18° |
| 2026-04-28 13:28 | 42.33204 | -72.93576 | 6564 ft | 279 kts | 17° |
| 2026-04-28 13:29 | 42.35083 | -72.92957 | 6191 ft | 277 kts | 17° |
| 2026-04-28 13:29 | 42.36327 | -72.92549 | 5941 ft | 276 kts | 17° |
| 2026-04-28 13:29 | 42.37366 | -72.92202 | 5743 ft | 276 kts | 17° |
| 2026-04-28 13:29 | 42.39197 | -72.91479 | 5373 ft | 273 kts | 25° |
| 2026-04-28 13:30 | 42.40795 | -72.90183 | 5013 ft | 263 kts | 41° |
| 2026-04-28 13:30 | 42.42034 | -72.88446 | 4668 ft | 251 kts | 56° |
| 2026-04-28 13:30 | 42.42871 | -72.86442 | 4350 ft | 240 kts | 70° |
| 2026-04-28 13:30 | 42.43306 | -72.84335 | 4035 ft | 224 kts | 83° |
| 2026-04-28 13:31 | 42.43158 | -72.80486 | 3489 ft | 195 kts | 107° |
| 2026-04-28 13:31 | 42.42689 | -72.78805 | 3241 ft | 181 kts | 117° |
| 2026-04-28 13:31 | 42.42109 | -72.77498 | 3015 ft | 152 kts | 126° |
| 2026-04-28 13:32 | 42.41503 | -72.76445 | 2833 ft | 135 kts | 129° |
| 2026-04-28 13:32 | 42.40947 | -72.75450 | 2655 ft | 132 kts | 127° |
| 2026-04-28 13:32 | 42.40394 | -72.74467 | 2548 ft | 130 kts | 129° |
| 2026-04-28 13:32 | 42.39829 | -72.73485 | 2396 ft | 132 kts | 128° |
| 2026-04-28 13:33 | 42.39294 | -72.72547 | 2281 ft | 121 kts | 128° |
| 2026-04-28 13:33 | 42.38802 | -72.71667 | 2208 ft | 116 kts | 127° |
| 2026-04-28 13:33 | 42.38323 | -72.70823 | 2051 ft | 115 kts | 127° |
| 2026-04-28 13:33 | 42.37844 | -72.69939 | 1872 ft | 118 kts | 127° |
| 2026-04-28 13:34 | 42.37337 | -72.69052 | 1753 ft | 120 kts | 130° |
| 2026-04-28 13:34 | 42.36799 | -72.68199 | 1659 ft | 122 kts | 131° |
| 2026-04-28 13:34 | 42.36241 | -72.67308 | 1626 ft | 124 kts | 130° |
| 2026-04-28 13:34 | 42.35699 | -72.66384 | 1553 ft | 127 kts | 126° |
| 2026-04-28 13:35 | 42.35205 | -72.65425 | 1382 ft | 114 kts | 124° |
| 2026-04-28 13:35 | 42.34799 | -72.64602 | 1070 ft | 99 kts | 127° |
| 2026-04-28 13:35 | 42.34380 | -72.63870 | 757 ft | 97 kts | 128° |
| 2026-04-28 13:35 | 42.33961 | -72.63142 | 510 ft | 100 kts | 129° |
| 2026-04-28 13:36 | 42.33535 | -72.62395 | 305 ft | 97 kts | 127° |
| 2026-04-28 13:36 | 42.33157 | -72.61734 | 153 ft | 84 kts | 128° |
| 2026-04-28 13:36 | 42.32812 | -72.61142 | 122 ft | 87 kts | 126° |
| 2026-04-28 13:36 | 42.32379 | -72.60399 | 414 ft | 101 kts | 128° |
| 2026-04-28 13:37 | 42.31970 | -72.59546 | 784 ft | 119 kts | 101° |
| 2026-04-28 13:37 | 42.32404 | -72.58626 | 1257 ft | 135 kts | 13° |
| 2026-04-28 13:37 | 42.33247 | -72.59229 | 1616 ft | 160 kts | 306° |
| 2026-04-28 13:37 | 42.33713 | -72.60755 | 1748 ft | 193 kts | 290° |
| 2026-04-28 13:38 | 42.34441 | -72.62324 | 1991 ft | 207 kts | 311° |
| 2026-04-28 13:38 | 42.35745 | -72.63426 | 1980 ft | 241 kts | 344° |
| 2026-04-28 13:38 | 42.37508 | -72.63694 | 1979 ft | 262 kts | 1° |
| 2026-04-28 13:38 | 42.39245 | -72.63454 | 1982 ft | 243 kts | 12° |
| 2026-04-28 13:39 | 42.40839 | -72.62917 | 1978 ft | 231 kts | 17° |
| 2026-04-28 13:39 | 42.42376 | -72.62377 | 1989 ft | 224 kts | 17° |
| 2026-04-28 13:39 | 42.43898 | -72.61942 | 1985 ft | 223 kts | 13° |
| 2026-04-28 13:39 | 42.45430 | -72.61621 | 1989 ft | 222 kts | 6° |
| 2026-04-28 13:40 | 42.46980 | -72.61574 | 1999 ft | 227 kts | 2° |
| 2026-04-28 13:40 | 42.48572 | -72.61570 | 2006 ft | 228 kts | 1° |
| 2026-04-28 13:40 | 42.50209 | -72.61577 | 2012 ft | 245 kts | 1° |
| 2026-04-28 13:40 | 42.51953 | -72.61606 | 2013 ft | 256 kts | 359° |
| 2026-04-28 13:41 | 42.53771 | -72.61642 | 2038 ft | 264 kts | 1° |
| 2026-04-28 13:41 | 42.55597 | -72.61643 | 2002 ft | 247 kts | 1° |
| 2026-04-28 13:41 | 42.57164 | -72.61641 | 1970 ft | 208 kts | 2° |
| 2026-04-28 13:41 | 42.58493 | -72.61646 | 1995 ft | 176 kts | 3° |
| 2026-04-28 13:42 | 42.59664 | -72.61642 | 1995 ft | 174 kts | 2° |
| 2026-04-28 13:42 | 42.60914 | -72.61620 | 2024 ft | 179 kts | 3° |
| 2026-04-28 13:42 | 42.62102 | -72.61554 | 2024 ft | 165 kts | 12° |
| 2026-04-28 13:42 | 42.63199 | -72.61230 | 1996 ft | 158 kts | 13° |
| 2026-04-28 13:43 | 42.64234 | -72.61067 | 2018 ft | 146 kts | 356° |
| 2026-04-28 13:43 | 42.65167 | -72.61532 | 1997 ft | 140 kts | 333° |
| 2026-04-28 13:43 | 42.65902 | -72.62356 | 1996 ft | 135 kts | 306° |
| 2026-04-28 13:43 | 42.66495 | -72.63391 | 1981 ft | 152 kts | 308° |
| 2026-04-28 13:44 | 42.66910 | -72.64883 | 2017 ft | 190 kts | 269° |
| 2026-04-28 13:44 | 42.66466 | -72.66702 | 2023 ft | 220 kts | 232° |
| 2026-04-28 13:44 | 42.65308 | -72.68206 | 2014 ft | 240 kts | 216° |
| 2026-04-28 13:44 | 42.63970 | -72.69648 | 2015 ft | 250 kts | 217° |
| 2026-04-28 13:45 | 42.62636 | -72.71080 | 2730 ft | 236 kts | 216° |
| 2026-04-28 13:45 | 42.61340 | -72.72485 | 3002 ft | 242 kts | 216° |
| 2026-04-28 13:45 | 42.59959 | -72.73866 | 3005 ft | 251 kts | 212° |
| 2026-04-28 13:45 | 42.58496 | -72.75200 | 3000 ft | 255 kts | 212° |
| 2026-04-28 13:46 | 42.57019 | -72.76533 | 3002 ft | 256 kts | 212° |
| 2026-04-28 13:46 | 42.55539 | -72.77868 | 3000 ft | 255 kts | 211° |
| 2026-04-28 13:46 | 42.54070 | -72.79215 | 3001 ft | 252 kts | 212° |
| 2026-04-28 13:46 | 42.52723 | -72.80455 | 2983 ft | 213 kts | 211° |
| 2026-04-28 13:47 | 42.51622 | -72.81482 | 2976 ft | 179 kts | 212° |
| 2026-04-28 13:47 | 42.50662 | -72.82377 | 2994 ft | 155 kts | 211° |
| 2026-04-28 13:47 | 42.49799 | -72.83187 | 3003 ft | 150 kts | 212° |
| 2026-04-28 13:47 | 42.48948 | -72.84013 | 2986 ft | 150 kts | 211° |
| 2026-04-28 13:48 | 42.48093 | -72.84837 | 3006 ft | 150 kts | 213° |
| 2026-04-28 13:48 | 42.47228 | -72.85642 | 3007 ft | 152 kts | 209° |
| 2026-04-28 13:48 | 42.46357 | -72.86468 | 2989 ft | 151 kts | 212° |
| 2026-04-28 13:48 | 42.45471 | -72.87202 | 2979 ft | 147 kts | 196° |
| 2026-04-28 13:49 | 42.44473 | -72.87527 | 2987 ft | 148 kts | 190° |
| 2026-04-28 13:49 | 42.43468 | -72.87829 | 2990 ft | 147 kts | 180° |
| 2026-04-28 13:49 | 42.42607 | -72.87279 | 2975 ft | 150 kts | 101° |
| 2026-04-28 13:49 | 42.43434 | -72.86175 | 2580 ft | 205 kts | 21° |
| 2026-04-28 13:50 | 42.44766 | -72.85507 | 2784 ft | 202 kts | 32° |
| 2026-04-28 13:50 | 42.45530 | -72.83846 | 2244 ft | 237 kts | 88° |
| 2026-04-28 13:50 | 42.44991 | -72.81684 | 2071 ft | 252 kts | 116° |
| 2026-04-28 13:50 | 42.44145 | -72.79755 | 2132 ft | 230 kts | 163° |
| 2026-04-28 13:51 | 42.42808 | -72.79137 | 3569 ft | 151 kts | 159° |
| 2026-04-28 13:51 | 42.41758 | -72.78601 | 4406 ft | 142 kts | 156° |
| 2026-04-28 13:51 | 42.41065 | -72.78260 | 5708 ft | 67 kts | 159° |
| 2026-04-28 13:51 | 42.40500 | -72.78189 | 5846 ft | 113 kts | 169° |
| 2026-04-28 13:52 | 42.39668 | -72.78008 | 5976 ft | 114 kts | 163° |
| 2026-04-28 13:52 | 42.39083 | -72.77901 | 6571 ft | 49 kts | 165° |
| 2026-04-28 13:52 | 42.38576 | -72.78098 | 6414 ft | 78 kts | 194° |
| 2026-04-28 13:52 | 42.38235 | -72.77441 | 5704 ft | 154 kts | 99° |
| 2026-04-28 13:53 | 42.38029 | -72.75837 | 5729 ft | 169 kts | 98° |
| 2026-04-28 13:53 | 42.37910 | -72.74274 | 6076 ft | 169 kts | 85° |
| 2026-04-28 13:53 | 42.38149 | -72.72570 | 5781 ft | 204 kts | 86° |
| 2026-04-28 13:53 | 42.38187 | -72.70773 | 5600 ft | 180 kts | 102° |
| 2026-04-28 13:54 | 42.37913 | -72.69214 | 5248 ft | 171 kts | 108° |
| 2026-04-28 13:54 | 42.37520 | -72.67711 | 4729 ft | 160 kts | 113° |
| 2026-04-28 13:54 | 42.37092 | -72.66385 | 4094 ft | 152 kts | 116° |
| 2026-04-28 13:54 | 42.36623 | -72.65183 | 3568 ft | 139 kts | 121° |
| 2026-04-28 13:55 | 42.36048 | -72.64299 | 2733 ft | 124 kts | 153° |
| 2026-04-28 13:55 | 42.35206 | -72.64208 | 1985 ft | 120 kts | 178° |
| 2026-04-28 13:55 | 42.34466 | -72.63869 | 1281 ft | 112 kts | 141° |
| 2026-04-28 13:55 | 42.33948 | -72.63090 | 731 ft | 107 kts | 130° |
| 2026-04-28 13:56 | 42.33509 | -72.62342 | 379 ft | 95 kts | 127° |
| 2026-04-28 13:56 | 42.33131 | -72.61690 | 153 ft | 79 kts | 128° |
| 2026-04-28 13:56 | 42.32875 | -72.61254 | 123 ft | 16 kts | 127° |
| 2026-04-28 13:56 | 42.32850 | -72.61209 | 126 ft | 0 kts | 127° |
| 2026-04-28 13:57 | 42.32771 | -72.61074 | 122 ft | 50 kts | 129° |
| 2026-04-28 13:57 | 42.32458 | -72.60499 | 248 ft | 85 kts | 125° |
| 2026-04-28 13:57 | 42.32104 | -72.59861 | 586 ft | 90 kts | 122° |
| 2026-04-28 13:57 | 42.31956 | -72.58951 | 756 ft | 118 kts | 80° |
| 2026-04-28 13:58 | 42.32256 | -72.58346 | 1065 ft | 122 kts | 31° |
| 2026-04-28 13:58 | 42.33058 | -72.58459 | 1675 ft | 129 kts | 319° |
| 2026-04-28 13:58 | 42.33598 | -72.59526 | 2177 ft | 146 kts | 302° |
| 2026-04-28 13:58 | 42.34227 | -72.60721 | 2687 ft | 167 kts | 308° |
| 2026-04-28 13:59 | 42.34981 | -72.62025 | 3290 ft | 181 kts | 307° |
| 2026-04-28 13:59 | 42.35731 | -72.63384 | 3898 ft | 182 kts | 303° |
| 2026-04-28 13:59 | 42.36038 | -72.65019 | 4424 ft | 183 kts | 260° |
| 2026-04-28 13:59 | 42.35445 | -72.66453 | 4981 ft | 176 kts | 213° |
| 2026-04-28 14:00 | 42.34361 | -72.67159 | 5513 ft | 175 kts | 199° |
| 2026-04-28 14:00 | 42.33330 | -72.68071 | 6038 ft | 182 kts | 220° |
| 2026-04-28 14:00 | 42.32516 | -72.69416 | 6488 ft | 192 kts | 229° |
| 2026-04-28 14:00 | 42.31643 | -72.70944 | 6506 ft | 219 kts | 227° |
| 2026-04-28 14:01 | 42.30647 | -72.72642 | 6502 ft | 243 kts | 228° |
| 2026-04-28 14:01 | 42.29554 | -72.74520 | 6500 ft | 264 kts | 229° |
| 2026-04-28 14:01 | 42.28416 | -72.76490 | 6490 ft | 274 kts | 229° |
| 2026-04-28 14:01 | 42.27218 | -72.78538 | 6277 ft | 275 kts | 231° |
| 2026-04-28 14:02 | 42.26048 | -72.80535 | 6268 ft | 274 kts | 231° |
| 2026-04-28 14:02 | 42.24872 | -72.82550 | 6268 ft | 273 kts | 232° |
| 2026-04-28 14:02 | 42.23697 | -72.84561 | 6267 ft | 273 kts | 232° |
| 2026-04-28 14:02 | 42.22519 | -72.86574 | 6269 ft | 273 kts | 231° |
| 2026-04-28 14:03 | 42.21341 | -72.88583 | 6268 ft | 273 kts | 232° |
| 2026-04-28 14:03 | 42.20160 | -72.90599 | 6267 ft | 273 kts | 231° |
| 2026-04-28 14:03 | 42.18980 | -72.92609 | 6267 ft | 273 kts | 231° |
| 2026-04-28 14:03 | 42.17804 | -72.94623 | 6267 ft | 273 kts | 231° |
| 2026-04-28 14:04 | 42.16623 | -72.96631 | 6268 ft | 273 kts | 231° |
| 2026-04-28 14:04 | 42.15444 | -72.98636 | 6267 ft | 273 kts | 231° |
| 2026-04-28 14:04 | 42.14266 | -73.00647 | 6265 ft | 273 kts | 231° |
| 2026-04-28 14:04 | 42.13084 | -73.02656 | 6265 ft | 273 kts | 231° |
| 2026-04-28 14:05 | 42.11902 | -73.04662 | 6267 ft | 273 kts | 231° |
| 2026-04-28 14:05 | 42.10725 | -73.06667 | 6266 ft | 273 kts | 231° |
| 2026-04-28 14:05 | 42.09539 | -73.08671 | 6270 ft | 274 kts | 231° |
| 2026-04-28 14:05 | 42.08354 | -73.10667 | 6264 ft | 273 kts | 231° |
| 2026-04-28 14:06 | 42.07172 | -73.12677 | 6265 ft | 273 kts | 231° |
| 2026-04-28 14:06 | 42.05992 | -73.14683 | 6273 ft | 273 kts | 231° |
| 2026-04-28 14:06 | 42.04807 | -73.16684 | 6263 ft | 273 kts | 231° |
| 2026-04-28 14:06 | 42.03625 | -73.18686 | 6266 ft | 273 kts | 231° |
| 2026-04-28 14:07 | 42.02444 | -73.20687 | 6263 ft | 273 kts | 231° |
| 2026-04-28 14:07 | 42.01260 | -73.22687 | 6266 ft | 273 kts | 231° |
| 2026-04-28 14:07 | 42.00073 | -73.24686 | 6267 ft | 273 kts | 231° |
| 2026-04-28 14:07 | 41.98903 | -73.26654 | 6265 ft | 273 kts | 231° |
| 2026-04-28 14:08 | 41.97721 | -73.28654 | 6263 ft | 273 kts | 231° |
| 2026-04-28 14:08 | 41.96536 | -73.30647 | 6264 ft | 273 kts | 231° |
| 2026-04-28 14:08 | 41.95347 | -73.32646 | 6265 ft | 273 kts | 231° |
| 2026-04-28 14:08 | 41.94161 | -73.34641 | 6264 ft | 273 kts | 231° |
| 2026-04-28 14:09 | 41.92979 | -73.36633 | 6264 ft | 273 kts | 231° |
| 2026-04-28 14:09 | 41.91792 | -73.38626 | 6263 ft | 273 kts | 231° |
| 2026-04-28 14:09 | 41.90604 | -73.40622 | 6263 ft | 273 kts | 231° |
| 2026-04-28 14:09 | 41.89417 | -73.42615 | 6263 ft | 273 kts | 231° |
| 2026-04-28 14:10 | 41.88228 | -73.44606 | 6263 ft | 273 kts | 231° |
| 2026-04-28 14:10 | 41.87040 | -73.46597 | 6263 ft | 273 kts | 231° |
| 2026-04-28 14:10 | 41.85852 | -73.48590 | 6264 ft | 273 kts | 231° |
| 2026-04-28 14:10 | 41.84664 | -73.50578 | 6264 ft | 273 kts | 231° |
| 2026-04-28 14:11 | 41.83472 | -73.52564 | 6264 ft | 273 kts | 231° |
| 2026-04-28 14:11 | 41.82285 | -73.54554 | 6264 ft | 273 kts | 231° |
| 2026-04-28 14:11 | 41.81094 | -73.56543 | 6264 ft | 273 kts | 231° |
| 2026-04-28 14:11 | 41.79902 | -73.58526 | 6264 ft | 273 kts | 231° |
| 2026-04-28 14:12 | 41.78712 | -73.60511 | 6266 ft | 273 kts | 231° |
| 2026-04-28 14:12 | 41.77521 | -73.62496 | 6264 ft | 273 kts | 231° |
| 2026-04-28 14:12 | 41.76330 | -73.64484 | 6264 ft | 273 kts | 231° |
| 2026-04-28 14:12 | 41.75166 | -73.66423 | 6459 ft | 270 kts | 227° |
| 2026-04-28 14:13 | 41.73986 | -73.68378 | 6468 ft | 270 kts | 227° |
| 2026-04-28 14:13 | 41.72805 | -73.70336 | 6468 ft | 271 kts | 227° |
| 2026-04-28 14:13 | 41.71631 | -73.72299 | 6463 ft | 270 kts | 227° |
| 2026-04-28 14:13 | 41.70457 | -73.74254 | 6477 ft | 269 kts | 227° |
| 2026-04-28 14:14 | 41.69287 | -73.76204 | 6474 ft | 269 kts | 227° |
| 2026-04-28 14:14 | 41.68103 | -73.78144 | 6472 ft | 269 kts | 227° |
| 2026-04-28 14:14 | 41.66931 | -73.80092 | 6475 ft | 269 kts | 227° |
| 2026-04-28 14:14 | 41.65753 | -73.82039 | 6475 ft | 269 kts | 227° |
| 2026-04-28 14:15 | 41.64580 | -73.83985 | 6470 ft | 268 kts | 227° |
| 2026-04-28 14:15 | 41.63404 | -73.85924 | 6467 ft | 268 kts | 227° |
| 2026-04-28 14:15 | 41.62227 | -73.87859 | 6478 ft | 269 kts | 227° |
| 2026-04-28 14:15 | 41.61054 | -73.89802 | 6473 ft | 268 kts | 227° |
| 2026-04-28 14:16 | 41.59884 | -73.91739 | 6470 ft | 268 kts | 227° |
| 2026-04-28 14:16 | 41.58711 | -73.93667 | 6470 ft | 268 kts | 227° |
| 2026-04-28 14:16 | 41.57539 | -73.95607 | 6472 ft | 268 kts | 227° |
| 2026-04-28 14:16 | 41.56367 | -73.97542 | 6473 ft | 268 kts | 227° |
| 2026-04-28 14:17 | 41.55184 | -73.99457 | 6474 ft | 267 kts | 226° |
| 2026-04-28 14:17 | 41.54011 | -74.01384 | 6476 ft | 267 kts | 227° |
| 2026-04-28 14:17 | 41.52853 | -74.03328 | 6475 ft | 267 kts | 229° |
| 2026-04-28 14:17 | 41.52003 | -74.05251 | 6059 ft | 229 kts | 246° |
| 2026-04-28 14:18 | 41.52018 | -74.07509 | 4286 ft | 267 kts | 288° |
| 2026-04-28 14:18 | 41.53164 | -74.09203 | 3852 ft | 243 kts | 323° |
| 2026-04-28 14:18 | 41.54536 | -74.10295 | 3439 ft | 218 kts | 329° |
| 2026-04-28 14:18 | 41.55569 | -74.11563 | 3056 ft | 191 kts | 290° |
| 2026-04-28 14:19 | 41.55506 | -74.12964 | 3007 ft | 131 kts | 225° |
| 2026-04-28 14:19 | 41.54712 | -74.13136 | 2468 ft | 123 kts | 155° |
| 2026-04-28 14:19 | 41.54072 | -74.12476 | 1841 ft | 108 kts | 147° |
| 2026-04-28 14:19 | 41.53469 | -74.11987 | 1354 ft | 101 kts | 153° |
| 2026-04-28 14:20 | 41.52856 | -74.11550 | 1083 ft | 105 kts | 148° |
| 2026-04-28 14:20 | 41.52214 | -74.10996 | 946 ft | 111 kts | 153° |
| 2026-04-28 14:20 | 41.51526 | -74.10466 | 703 ft | 114 kts | 148° |
| 2026-04-28 14:20 | 41.50915 | -74.09975 | 490 ft | 88 kts | 149° |
| 2026-04-28 14:21 | 41.50499 | -74.09653 | 465 ft | 35 kts | 150° |
| 2026-04-28 14:21 | 41.50432 | -74.09670 | 466 ft | 7 kts | 255° |
| 2026-04-28 14:21 | 41.50424 | -74.09724 | 468 ft | 9 kts | 251° |
| 2026-04-28 14:21 | 41.50351 | -74.09781 | 469 ft | 12 kts | 192° |
| 2026-04-28 14:22 | 41.50238 | -74.09814 | 466 ft | 17 kts | 192° |
| 2026-04-28 14:22 | 41.50151 | -74.09883 | 466 ft | 8 kts | 225° |
| 2026-04-28 14:22 | 41.50132 | -74.09926 | 467 ft | 3 kts | 283° |
| 2026-04-28 14:22 | 41.50155 | -74.09945 | 467 ft | 0 kts | 18° |